Time;durP1;ratioP1;P1;durP2;ratioP2;P2;SDS_P1;SDS_P2;PMS_P1;PMS_P2;Temp;Humidity;BMP_temperature;BMP_pressure;BME280_temperature;BME280_humidity;BME280_pressure;Samples;Min_cycle;Max_cycle;Signal;HPM_P1;HPM_P2
2023/02/03 00:00:33;;;;;;;17.10;11.30;;;;;;;-0.22;100.00;100228.25;104913;1264;74192;-60
2023/02/03 00:03:01;;;;;;;16.70;11.60;;;;;;;-0.23;100.00;100232.42;105315;1263;68111;-60
2023/02/03 00:05:30;;;;;;;17.60;11.50;;;;;;;-0.24;100.00;100231.47;105612;1262;74259;-61
2023/02/03 00:07:59;;;;;;;16.10;9.90;;;;;;;-0.23;100.00;100230.23;105144;1262;61320;-58
2023/02/03 00:10:28;;;;;;;18.60;11.50;;;;;;;-0.23;100.00;100231.21;105256;1260;61908;-59
2023/02/03 00:12:57;;;;;;;18.60;11.50;;;;;;;-0.22;100.00;100229.43;105186;1263;75336;-62
2023/02/03 00:15:26;;;;;;;19.90;11.40;;;;;;;-0.21;100.00;100228.85;105174;1263;68581;-60
2023/02/03 00:17:55;;;;;;;15.80;11.30;;;;;;;-0.23;100.00;100229.19;105038;1265;72878;-59
2023/02/03 00:20:24;;;;;;;18.60;10.60;;;;;;;-0.28;100.00;100227.27;105040;1263;61447;-58
2023/02/03 00:22:54;;;;;;;17.30;11.20;;;;;;;-0.31;100.00;100227.19;105042;1265;60458;-59
2023/02/03 00:25:23;;;;;;;18.80;12.10;;;;;;;-0.32;100.00;100232.21;105007;1264;74867;-59
2023/02/03 00:27:52;;;;;;;19.30;12.00;;;;;;;-0.32;100.00;100230.38;104992;1261;68742;-58
2023/02/03 00:30:21;;;;;;;22.30;12.30;;;;;;;-0.32;100.00;100233.05;104948;1262;74239;-59
2023/02/03 00:32:50;;;;;;;21.90;13.00;;;;;;;-0.33;100.00;100233.84;104938;1264;61731;-60
2023/02/03 00:35:19;;;;;;;22.30;13.70;;;;;;;-0.35;100.00;100238.60;104979;1260;61781;-59
2023/02/03 00:37:54;;;;;;;19.80;12.90;;;;;;;-0.38;100.00;100234.71;105062;1262;75669;-61
2023/02/03 00:40:24;;;;;;;20.90;13.40;;;;;;;-0.42;100.00;100233.66;104902;1263;68531;-61
2023/02/03 00:42:53;;;;;;;20.00;12.00;;;;;;;-0.45;100.00;100232.14;104827;1262;73237;-60
2023/02/03 00:45:22;;;;;;;20.60;13.30;;;;;;;-0.46;100.00;100226.27;105046;1262;62617;-61
2023/02/03 00:47:51;;;;;;;20.40;12.40;;;;;;;-0.51;100.00;100222.16;105090;1261;62297;-58
2023/02/03 00:50:20;;;;;;;21.00;12.40;;;;;;;-0.55;100.00;100224.34;104818;1262;74310;-60
2023/02/03 00:52:48;;;;;;;17.30;11.40;;;;;;;-0.56;100.00;100227.02;104919;1261;67852;-59
2023/02/03 00:55:17;;;;;;;18.70;11.10;;;;;;;-0.57;100.00;100233.23;104942;1265;73466;-62
2023/02/03 00:57:45;;;;;;;22.40;12.60;;;;;;;-0.57;100.00;100232.31;104975;1265;62901;-60
2023/02/03 01:00:15;;;;;;;17.60;10.60;;;;;;;-0.59;100.00;100228.26;104956;1263;60875;-62
2023/02/03 01:02:44;;;;;;;17.10;10.80;;;;;;;-0.61;100.00;100230.10;104962;1261;75310;-60
2023/02/03 01:05:14;;;;;;;16.40;10.20;;;;;;;-0.64;100.00;100228.30;105143;1262;69076;-62
2023/02/03 01:07:43;;;;;;;21.60;12.20;;;;;;;-0.67;100.00;100226.63;104938;1262;74111;-60
2023/02/03 01:10:13;;;;;;;17.50;10.70;;;;;;;-0.68;100.00;100225.81;105081;1265;62948;-60
2023/02/03 01:12:43;;;;;;;18.30;11.10;;;;;;;-0.69;100.00;100227.95;104951;1261;60630;-60
2023/02/03 01:15:11;;;;;;;18.30;11.10;;;;;;;-0.71;100.00;100222.84;104937;1263;74385;-59
2023/02/03 01:17:40;;;;;;;16.00;9.20;;;;;;;-0.72;100.00;100223.58;105084;1262;68599;-59
2023/02/03 01:20:11;;;;;;;17.50;10.40;;;;;;;-0.72;100.00;100221.20;104990;1264;74296;-60
2023/02/03 01:22:39;;;;;;;15.30;10.10;;;;;;;-0.72;100.00;100222.36;104863;1262;60938;-62
2023/02/03 01:25:08;;;;;;;18.20;10.80;;;;;;;-0.73;100.00;100225.50;104726;1264;60975;-61
2023/02/03 01:27:38;;;;;;;15.60;9.70;;;;;;;-0.72;100.00;100225.46;105022;1264;75334;-61
2023/02/03 01:30:07;;;;;;;18.10;10.40;;;;;;;-0.71;100.00;100228.15;105081;1263;68613;-61
2023/02/03 01:32:39;;;;;;;20.70;11.90;;;;;;;-0.71;100.00;100225.91;105083;1262;74675;-62
2023/02/03 01:35:07;;;;;;;16.60;10.80;;;;;;;-0.71;100.00;100229.48;105019;1264;61288;-63
2023/02/03 01:37:36;;;;;;;18.30;11.80;;;;;;;-0.69;100.00;100226.59;104805;1261;61848;-61
2023/02/03 01:40:06;;;;;;;20.20;11.80;;;;;;;-0.68;100.00;100227.91;105086;1262;74430;-61
2023/02/03 01:42:34;;;;;;;21.10;12.80;;;;;;;-0.69;100.00;100230.31;105004;1263;67130;-61
2023/02/03 01:45:03;;;;;;;17.00;10.50;;;;;;;-0.68;100.00;100227.73;105065;1263;74173;-62
2023/02/03 01:47:43;;;;;;;20.60;12.80;;;;;;;-0.69;100.00;100224.89;104988;1264;60426;-61
2023/02/03 01:50:32;;;;;;;19.50;12.10;;;;;;;-0.71;100.00;100227.10;104954;1265;60580;-62
2023/02/03 01:53:02;;;;;;;19.40;11.60;;;;;;;-0.75;100.00;100224.79;105024;1260;75310;-62
2023/02/03 01:55:34;;;;;;;21.70;12.20;;;;;;;-0.79;100.00;100225.91;104976;1263;69045;-62
2023/02/03 01:58:04;;;;;;;;;;;;;;;-0.83;100.00;100225.55;104923;1262;74570;-63
2023/02/03 02:00:32;;;;;;;19.60;10.80;;;;;;;-0.87;100.00;100225.13;104984;1262;60486;-61
2023/02/03 02:03:01;;;;;;;17.20;10.20;;;;;;;-0.90;100.00;100215.64;105633;1261;61023;-62
2023/02/03 02:05:37;;;;;;;18.00;11.30;;;;;;;-0.93;100.00;100214.85;104733;1262;74789;-61
2023/02/03 02:08:06;;;;;;;24.80;12.10;;;;;;;-0.96;100.00;100212.33;104782;1264;68487;-61
2023/02/03 02:10:35;;;;;;;18.50;11.50;;;;;;;-0.99;100.00;100216.61;105027;1262;73606;-61
2023/02/03 02:13:03;;;;;;;19.50;11.20;;;;;;;-1.00;100.00;100221.63;104942;1262;62825;-60
2023/02/03 02:15:36;;;;;;;20.80;12.00;;;;;;;-1.00;100.00;100224.41;105106;1264;61770;-61
2023/02/03 02:18:15;;;;;;;21.60;11.80;;;;;;;-1.01;100.00;100223.23;104930;1262;74403;-60
2023/02/03 02:21:22;;;;;;;19.40;11.40;;;;;;;-1.02;100.00;100222.10;104800;1262;67174;-60
2023/02/03 02:24:03;;;;;;;21.40;11.40;;;;;;;-1.02;100.00;100228.94;104793;1259;72874;-59
2023/02/03 02:26:43;;;;;;;19.90;10.70;;;;;;;-1.01;100.00;100228.36;104679;1262;61623;-61
2023/02/03 02:29:43;;;;;;;18.10;10.00;;;;;;;-1.01;100.00;100229.08;104919;1264;61219;-59
2023/02/03 02:32:39;;;;;;;18.60;10.30;;;;;;;-1.03;100.00;100236.67;104679;1264;75664;-61
2023/02/03 02:35:46;;;;;;;20.70;11.20;;;;;;;-1.04;100.00;100240.36;104838;1265;67767;-61
2023/02/03 02:38:33;;;;;;;17.50;10.40;;;;;;;-1.02;100.00;100244.69;104963;1264;72336;-59
2023/02/03 02:41:02;;;;;;;20.50;10.70;;;;;;;-1.01;100.00;100241.83;104983;1260;60536;-60
2023/02/03 02:43:34;;;;;;;19.10;11.50;;;;;;;-1.00;100.00;100236.29;105098;1264;60852;-60
2023/02/03 02:46:08;;;;;;;17.80;10.40;;;;;;;-0.99;100.00;100232.47;104869;1263;75453;-60
2023/02/03 02:48:53;;;;;;;20.00;10.20;;;;;;;-0.99;100.00;100230.59;105070;1267;68646;-60
2023/02/03 02:51:22;;;;;;;17.80;10.20;;;;;;;-0.99;100.00;100235.36;105147;1264;73691;-61
2023/02/03 02:54:01;;;;;;;20.00;11.40;;;;;;;-1.01;100.00;100239.11;105239;1264;61178;-60
2023/02/03 02:56:30;;;;;;;17.50;10.10;;;;;;;-1.03;100.00;100241.27;104710;1265;61209;-59
2023/02/03 02:59:00;;;;;;;18.60;10.80;;;;;;;-1.05;100.00;100236.02;104913;1265;75617;-59
2023/02/03 03:01:28;;;;;;;16.90;9.20;;;;;;;-1.07;100.00;100238.37;105018;1265;67709;-61
2023/02/03 03:03:58;;;;;;;17.10;8.70;;;;;;;-1.09;100.00;100242.74;105431;1261;73576;-60
2023/02/03 03:06:29;;;;;;;17.00;10.40;;;;;;;-1.11;100.00;100240.35;104961;1265;61510;-61
2023/02/03 03:09:07;;;;;;;19.50;9.60;;;;;;;-1.13;100.00;100242.19;104804;1267;60867;-61
2023/02/03 03:11:44;;;;;;;16.20;10.40;;;;;;;-1.14;100.00;100241.73;104858;1266;74505;-62
2023/02/03 03:14:12;;;;;;;14.60;8.50;;;;;;;-1.13;100.00;100242.91;104824;1267;67538;-61
2023/02/03 03:16:43;;;;;;;16.30;9.30;;;;;;;-1.13;100.00;100241.71;104954;1265;72769;-61
2023/02/03 03:19:14;;;;;;;15.30;9.30;;;;;;;-1.15;100.00;100237.91;105081;1260;62785;-60
2023/02/03 03:21:48;;;;;;;20.60;10.70;;;;;;;-1.16;100.00;100235.96;105015;1265;60876;-61
2023/02/03 03:24:19;;;;;;;14.70;9.20;;;;;;;-1.18;100.00;100236.02;105036;1264;75812;-61
2023/02/03 03:26:54;;;;;;;16.10;8.90;;;;;;;-1.20;100.00;100235.04;105047;1268;68684;-65
2023/02/03 03:29:30;;;;;;;16.30;9.70;;;;;;;-1.21;100.00;100239.34;104930;1263;74620;-62
2023/02/03 03:32:00;;;;;;;16.80;10.30;;;;;;;-1.22;100.00;100240.91;105371;1265;61131;-63
2023/02/03 03:34:29;;;;;;;17.00;9.90;;;;;;;-1.23;100.00;100242.36;105432;1262;61623;-63
2023/02/03 03:37:06;;;;;;;18.20;9.30;;;;;;;-1.26;100.00;100239.30;105284;1265;75117;-60
2023/02/03 03:39:55;;;;;;;18.60;10.50;;;;;;;-1.27;100.00;100237.56;105014;1264;66835;-61
2023/02/03 03:42:27;;;;;;;17.70;8.70;;;;;;;-1.29;100.00;100236.96;105452;1264;74113;-61
2023/02/03 03:45:18;;;;;;;15.10;9.80;;;;;;;-1.30;100.00;100236.91;105205;1265;59898;-60
2023/02/03 03:48:00;;;;;;;16.10;9.00;;;;;;;-1.32;100.00;100236.53;105142;1263;61948;-61
2023/02/03 03:50:33;;;;;;;14.50;8.70;;;;;;;-1.34;100.00;100238.34;105367;1263;74327;-61
2023/02/03 03:53:02;;;;;;;16.00;9.20;;;;;;;-1.34;100.00;100238.69;105007;1266;67764;-63
2023/02/03 03:55:31;;;;;;;13.80;7.80;;;;;;;-1.33;100.00;100241.52;105142;1259;73232;-62
2023/02/03 03:58:05;;;;;;;16.50;9.00;;;;;;;-1.33;100.00;100242.55;105432;1262;61260;-61
2023/02/03 04:00:36;;;;;;;14.60;8.70;;;;;;;-1.34;100.00;100244.50;105547;1273;61328;-62
2023/02/03 04:03:07;;;;;;;15.50;9.50;;;;;;;-1.33;100.00;100250.38;105940;1261;75300;-60
2023/02/03 04:05:36;;;;;;;;;;;;;;;-1.33;100.00;100246.46;105440;1263;68758;-61
2023/02/03 04:08:04;;;;;;;15.70;9.80;;;;;;;-1.32;100.00;100245.23;105036;1265;73582;-61
2023/02/03 04:10:39;;;;;;;15.90;9.50;;;;;;;-1.32;100.00;100247.29;104837;1260;62731;-60
2023/02/03 04:13:08;;;;;;;13.50;8.10;;;;;;;-1.31;100.00;100247.70;104864;1264;60877;-64
2023/02/03 04:15:38;;;;;;;13.30;8.20;;;;;;;-1.30;100.00;100250.02;105155;1260;74958;-61
2023/02/03 04:18:10;;;;;;;14.50;8.60;;;;;;;-1.30;100.00;100251.73;104920;1264;69216;-59
2023/02/03 04:20:38;;;;;;;12.40;7.10;;;;;;;-1.31;100.00;100257.42;104840;1261;74502;-60
2023/02/03 04:23:07;;;;;;;17.00;9.10;;;;;;;-1.31;100.00;100254.52;104977;1265;61746;-60
2023/02/03 04:25:36;;;;;;;13.90;8.40;;;;;;;-1.31;100.00;100257.40;104807;1265;60895;-60
2023/02/03 04:28:05;;;;;;;14.20;8.20;;;;;;;-1.31;100.00;100254.00;105020;1265;74733;-60
2023/02/03 04:30:34;;;;;;;15.60;8.80;;;;;;;-1.31;100.00;100256.54;105196;1263;68784;-61
2023/02/03 04:33:03;;;;;;;13.20;8.70;;;;;;;-1.28;100.00;100255.17;105160;1264;74468;-60
2023/02/03 04:35:32;;;;;;;14.40;8.60;;;;;;;-1.27;100.00;100256.58;105189;1263;61911;-61
2023/02/03 04:38:01;;;;;;;16.50;10.40;;;;;;;-1.25;100.00;100257.36;104893;1264;60565;-59
2023/02/03 04:40:29;;;;;;;16.10;9.20;;;;;;;-1.25;100.00;100256.48;104890;1264;74305;-60
2023/02/03 04:43:05;;;;;;;13.50;8.60;;;;;;;-1.24;100.00;100257.08;104898;1265;67576;-60
2023/02/03 04:45:34;;;;;;;13.20;8.50;;;;;;;-1.23;100.00;100257.33;104923;1261;72786;-59
2023/02/03 04:48:06;;;;;;;13.50;7.50;;;;;;;-1.24;100.00;100262.00;105036;1264;62880;-62
2023/02/03 04:50:34;;;;;;;;;;;;;;;-1.24;100.00;100264.21;104977;1265;60828;-59
2023/02/03 04:53:03;;;;;;;12.80;8.00;;;;;;;-1.25;100.00;100263.98;104927;1265;75332;-59
2023/02/03 04:55:31;;;;;;;14.50;8.90;;;;;;;-1.25;100.00;100267.41;104652;1263;66781;-58
2023/02/03 04:58:00;;;;;;;12.20;7.90;;;;;;;-1.25;100.00;100269.59;105074;1262;74426;-61
2023/02/03 05:00:29;;;;;;;15.00;8.10;;;;;;;-1.22;100.00;100273.48;105040;1261;61549;-57
2023/02/03 05:02:58;;;;;;;14.90;8.20;;;;;;;-1.23;100.00;100270.98;105011;1261;62107;-60
2023/02/03 05:05:27;;;;;;;15.20;8.30;;;;;;;-1.25;100.00;100273.66;104922;1260;73938;-60
2023/02/03 05:07:56;;;;;;;12.20;7.80;;;;;;;-1.27;100.00;100277.20;105167;1261;69172;-61
2023/02/03 05:10:24;;;;;;;13.70;7.80;;;;;;;-1.26;100.00;100279.20;105008;1259;73106;-60
2023/02/03 05:12:54;;;;;;;13.90;8.10;;;;;;;-1.25;100.00;100281.17;104944;1262;61139;-60
2023/02/03 05:15:23;;;;;;;13.60;7.80;;;;;;;-1.22;100.00;100281.52;105090;1263;60941;-61
2023/02/03 05:17:52;;;;;;;12.40;7.30;;;;;;;-1.21;100.00;100279.75;105201;1263;75634;-60
2023/02/03 05:20:21;;;;;;;17.70;8.80;;;;;;;-1.20;100.00;100279.67;104852;1262;68917;-59
2023/02/03 05:22:50;;;;;;;12.90;8.00;;;;;;;-1.18;100.00;100279.92;104900;1265;74188;-59
2023/02/03 05:25:19;;;;;;;15.50;8.50;;;;;;;-1.16;100.00;100279.41;105130;1261;60879;-61
2023/02/03 05:27:47;;;;;;;14.60;8.60;;;;;;;-1.14;100.00;100276.21;104986;1263;61869;-60
2023/02/03 05:30:17;;;;;;;14.20;8.70;;;;;;;-1.13;100.00;100279.04;104970;1272;75354;-60
2023/02/03 05:32:46;;;;;;;17.80;9.90;;;;;;;-1.14;100.00;100278.77;105002;1265;68582;-60
2023/02/03 05:35:14;;;;;;;15.40;8.40;;;;;;;-1.13;100.00;100279.02;104995;1260;73455;-61
2023/02/03 05:37:44;;;;;;;15.20;8.90;;;;;;;-1.09;100.00;100282.67;104794;1265;60881;-60
2023/02/03 05:43:00;;;;;;;17.10;10.10;;;;;;;-1.01;100.00;100293.66;105196;1265;75436;-60
2023/02/03 05:45:29;;;;;;;15.90;8.60;;;;;;;-1.00;100.00;100299.77;104912;1260;66568;-62
2023/02/03 05:47:57;;;;;;;15.90;8.20;;;;;;;-1.00;100.00;100300.13;104874;1264;73561;-60
2023/02/03 05:50:29;;;;;;;14.40;7.80;;;;;;;-1.03;100.00;100301.66;104874;1264;61559;-61
2023/02/03 05:53:07;;;;;;;13.40;7.10;;;;;;;-1.05;100.00;100302.32;104869;1265;60729;-61
2023/02/03 05:55:36;;;;;;;14.20;8.80;;;;;;;-1.05;100.00;100300.66;104973;1264;75281;-60
2023/02/03 05:58:05;;;;;;;14.90;8.80;;;;;;;-1.04;100.00;100302.27;104989;1265;68606;-59
2023/02/03 06:00:34;;;;;;;13.60;7.80;;;;;;;-1.05;100.00;100302.13;104868;1264;74123;-62
2023/02/03 06:03:03;;;;;;;15.10;7.80;;;;;;;-1.04;100.00;100305.67;104982;1266;61691;-61
2023/02/03 06:05:32;;;;;;;13.00;7.10;;;;;;;-1.02;100.00;100309.61;104888;1264;61817;-61
2023/02/03 06:08:01;;;;;;;13.20;7.80;;;;;;;-0.97;100.00;100308.41;105001;1263;73757;-60
2023/02/03 06:10:29;;;;;;;14.70;7.80;;;;;;;-0.93;100.00;100314.29;105024;1264;68710;-60
2023/02/03 06:12:59;;;;;;;13.20;8.00;;;;;;;-0.91;100.00;100315.84;104900;1260;73318;-60
2023/02/03 06:15:27;;;;;;;15.90;8.30;;;;;;;-0.87;100.00;100319.67;105024;1262;62465;-61
2023/02/03 06:17:56;;;;;;;14.60;9.20;;;;;;;-0.85;100.00;100320.38;105003;1261;61810;-61
2023/02/03 06:20:24;;;;;;;13.20;8.30;;;;;;;-0.81;100.00;100323.50;104746;1262;75144;-61
2023/02/03 06:22:53;;;;;;;15.70;9.60;;;;;;;-0.76;100.00;100322.65;104937;1261;68663;-61
2023/02/03 06:25:23;;;;;;;17.50;10.00;;;;;;;-0.72;100.00;100324.77;105180;1263;74144;-62
2023/02/03 06:27:51;;;;;;;17.50;8.60;;;;;;;-0.72;100.00;100329.17;104806;1265;62413;-60
2023/02/03 06:30:22;;;;;;;15.80;10.20;;;;;;;-0.71;100.00;100328.48;104904;1264;61751;-61
2023/02/03 06:32:51;;;;;;;18.30;10.10;;;;;;;-0.71;100.00;100328.79;105063;1263;74739;-62
2023/02/03 06:35:19;;;;;;;15.60;9.20;;;;;;;-0.66;100.00;100329.65;104871;1264;68924;-60
2023/02/03 06:37:48;;;;;;;16.90;9.80;;;;;;;-0.62;100.00;100331.17;104858;1264;74624;-61
2023/02/03 06:40:17;;;;;;;17.80;10.30;;;;;;;-0.61;100.00;100330.13;104920;1263;61455;-60
2023/02/03 06:42:46;;;;;;;16.30;9.50;;;;;;;-0.58;100.00;100331.76;104901;1264;60410;-62
2023/02/03 06:45:15;;;;;;;16.40;9.30;;;;;;;-0.54;100.00;100335.89;105108;1264;74008;-62
2023/02/03 06:47:44;;;;;;;14.80;8.90;;;;;;;-0.51;100.00;100340.97;105003;1263;67722;-61
2023/02/03 06:50:13;;;;;;;14.80;9.20;;;;;;;-0.46;100.00;100342.01;104984;1261;74171;-61
2023/02/03 06:52:42;;;;;;;15.60;9.20;;;;;;;-0.42;100.00;100340.18;104952;1260;62807;-60
2023/02/03 06:55:11;;;;;;;15.70;9.50;;;;;;;-0.38;100.00;100337.46;105077;1264;62065;-61
2023/02/03 06:57:44;;;;;;;15.80;9.30;;;;;;;-0.35;100.00;100333.36;105084;1263;75385;-61
2023/02/03 07:00:14;;;;;;;15.40;10.30;;;;;;;-0.31;100.00;100328.61;104970;1263;67613;-60
2023/02/03 07:02:49;;;;;;;19.60;9.80;;;;;;;-0.25;100.00;100326.45;104744;1260;73981;-63
2023/02/03 07:05:17;;;;;;;18.20;10.40;;;;;;;-0.17;100.00;100325.55;104765;1260;62014;-62
2023/02/03 07:07:46;;;;;;;17.10;9.60;;;;;;;-0.08;100.00;100323.85;105053;1263;62125;-59
2023/02/03 07:10:16;;;;;;;17.20;10.30;;;;;;;-0.00;100.00;100321.95;105029;1261;75844;-61
2023/02/03 07:12:45;;;;;;;16.90;9.20;;;;;;;0.09;100.00;100322.83;105233;1260;67652;-63
2023/02/03 07:15:13;;;;;;;17.50;9.90;;;;;;;0.16;100.00;100323.61;104669;1263;73141;-59
2023/02/03 07:17:42;;;;;;;22.60;11.70;;;;;;;0.25;100.00;100317.50;105141;1261;61748;-61
2023/02/03 07:20:11;;;;;;;18.90;10.50;;;;;;;0.40;100.00;100322.15;105113;1261;509358;-59
2023/02/03 07:22:42;;;;;;;19.20;11.80;;;;;;;0.59;100.00;100322.41;105257;1259;75359;-61
2023/02/03 07:25:11;;;;;;;20.90;12.20;;;;;;;0.79;100.00;100321.77;105076;1262;68096;-59
2023/02/03 07:27:39;;;;;;;17.50;11.60;;;;;;;0.92;100.00;100318.46;105084;1260;74170;-59
2023/02/03 07:30:09;;;;;;;21.50;12.00;;;;;;;1.02;100.00;100319.94;105060;1261;62711;-58
2023/02/03 07:32:38;;;;;;;34.80;22.10;;;;;;;1.17;100.00;100319.45;105271;1263;61640;-62
2023/02/03 07:35:07;;;;;;;23.20;16.10;;;;;;;1.39;100.00;100325.95;104929;1263;75346;-60
2023/02/03 07:37:37;;;;;;;25.60;21.00;;;;;;;1.54;100.00;100320.85;105088;1264;67723;-59
2023/02/03 07:40:06;;;;;;;18.70;12.80;;;;;;;1.63;100.00;100321.95;104981;1262;74567;-59
2023/02/03 07:42:39;;;;;;;23.00;13.60;;;;;;;1.75;100.00;100321.73;105518;1261;61672;-60
2023/02/03 07:45:09;;;;;;;29.70;17.60;;;;;;;1.93;100.00;100317.83;104999;1264;60426;-59
2023/02/03 07:47:38;;;;;;;25.60;19.00;;;;;;;2.22;100.00;100313.86;104994;1260;75289;-60
2023/02/03 07:50:07;;;;;;;17.60;11.70;;;;;;;2.61;100.00;100307.83;104918;1264;68612;-60
2023/02/03 07:52:36;;;;;;;13.50;9.60;;;;;;;3.08;100.00;100307.54;105012;1261;73891;-62
2023/02/03 07:55:06;;;;;;;12.90;8.30;;;;;;;3.61;100.00;100297.11;104960;1272;61135;-59
2023/02/03 07:57:35;;;;;;;14.30;9.10;;;;;;;4.19;100.00;100296.77;105092;1260;61614;-59
2023/02/03 08:00:04;;;;;;;12.50;8.90;;;;;;;4.79;100.00;100298.33;105035;1263;74304;-59
2023/02/03 08:02:40;;;;;;;13.20;9.30;;;;;;;5.31;100.00;100290.76;105020;1263;68240;-61
2023/02/03 08:05:09;;;;;;;11.20;8.40;;;;;;;5.83;100.00;100290.04;104948;1263;72818;-59
2023/02/03 08:07:38;;;;;;;10.30;7.30;;;;;;;6.18;100.00;100279.09;105102;1264;60929;-59
2023/02/03 08:10:07;;;;;;;11.80;7.60;;;;;;;6.36;100.00;100272.80;104964;1260;60930;-59
2023/02/03 08:12:35;;;;;;;11.40;7.50;;;;;;;6.47;100.00;100267.90;105057;1264;75411;-59
2023/02/03 08:15:05;;;;;;;11.30;7.60;;;;;;;6.51;100.00;100263.17;104962;1260;68352;-59
2023/02/03 08:17:34;;;;;;;9.70;7.20;;;;;;;6.52;100.00;100260.98;105012;1260;73571;-59
2023/02/03 08:20:04;;;;;;;9.30;7.00;;;;;;;6.61;100.00;100260.25;105005;1263;61583;-58
2023/02/03 08:22:33;;;;;;;12.80;7.80;;;;;;;6.49;100.00;100262.70;105125;1260;60703;-62
2023/02/03 08:25:02;;;;;;;11.30;8.30;;;;;;;6.35;100.00;100260.47;104967;1259;75627;-59
2023/02/03 08:27:35;;;;;;;10.20;7.50;;;;;;;6.39;100.00;100261.10;104933;1264;67328;-58
2023/02/03 08:30:05;;;;;;;9.80;6.60;;;;;;;6.57;100.00;100260.10;105182;1261;74111;-60
2023/02/03 08:32:33;;;;;;;9.30;6.20;;;;;;;6.61;100.00;100260.73;104757;1260;60976;-62
2023/02/03 08:35:02;;;;;;;9.20;7.00;;;;;;;6.47;100.00;100259.80;104799;1264;62137;-58
2023/02/03 08:37:31;;;;;;;9.90;7.40;;;;;;;6.24;100.00;100261.45;104950;1267;74327;-58
2023/02/03 08:40:00;;;;;;;10.80;7.90;;;;;;;5.94;100.00;100267.16;105141;1260;67766;-62
2023/02/03 08:42:28;;;;;;;10.70;7.60;;;;;;;5.67;100.00;100271.20;104831;1265;74112;-58
2023/02/03 08:44:57;;;;;;;9.40;6.90;;;;;;;5.41;100.00;100265.86;104548;1264;60894;-60
2023/02/03 08:47:27;;;;;;;10.00;7.30;;;;;;;5.12;100.00;100266.55;104946;1260;61860;-59
2023/02/03 08:49:56;;;;;;;10.50;7.20;;;;;;;4.74;100.00;100266.70;104906;1261;75236;-62
2023/02/03 08:52:24;;;;;;;11.30;7.80;;;;;;;4.24;100.00;100262.48;105028;1261;68706;-60
2023/02/03 08:54:53;;;;;;;11.70;7.90;;;;;;;3.71;100.00;100269.02;105045;1264;74270;-59
2023/02/03 08:57:21;;;;;;;11.00;7.80;;;;;;;3.24;100.00;100268.73;105170;1272;60502;-60
2023/02/03 08:59:51;;;;;;;11.20;7.20;;;;;;;2.84;100.00;100274.30;105383;1264;60827;-62
2023/02/03 09:02:20;;;;;;;11.50;7.60;;;;;;;2.49;100.00;100273.16;105696;1260;74331;-61
2023/02/03 09:04:50;;;;;;;12.50;8.00;;;;;;;2.27;100.00;100271.81;105201;1261;68431;-59
2023/02/03 09:07:19;;;;;;;11.30;7.30;;;;;;;2.11;100.00;100271.71;105212;1264;73103;-59
2023/02/03 09:09:48;;;;;;;11.20;7.10;;;;;;;2.03;100.00;100266.27;105234;1261;60918;-59
2023/02/03 09:12:16;;;;;;;13.80;8.40;;;;;;;2.02;100.00;100266.16;105402;1260;61801;-62
2023/02/03 09:14:45;;;;;;;12.60;8.30;;;;;;;2.02;100.00;100266.17;105225;1261;73701;-59
2023/02/03 09:17:13;;;;;;;10.50;7.80;;;;;;;2.03;100.00;100264.58;105286;1264;68628;-62
2023/02/03 09:19:42;;;;;;;13.40;9.50;;;;;;;2.07;100.00;100258.91;105035;1264;74666;-60
2023/02/03 09:22:10;;;;;;;13.30;9.50;;;;;;;2.07;100.00;100258.94;105223;1260;60736;-63
2023/02/03 09:24:39;;;;;;;12.80;8.90;;;;;;;2.11;100.00;100254.91;104961;1264;61414;-62
2023/02/03 09:27:08;;;;;;;12.10;7.90;;;;;;;2.21;100.00;100251.57;105036;1261;73581;-63
2023/02/03 09:29:36;;;;;;;13.10;8.90;;;;;;;2.28;100.00;100248.77;105081;1264;68649;-62
2023/02/03 09:32:09;;;;;;;12.40;7.20;;;;;;;2.28;100.00;100248.92;105497;1262;74020;-62
2023/02/03 09:34:39;;;;;;;11.70;6.80;;;;;;;2.27;100.00;100243.69;105154;1264;60415;-63
2023/02/03 09:37:09;;;;;;;12.00;6.80;;;;;;;2.23;100.00;100240.94;105276;1261;61688;-61
2023/02/03 09:39:38;;;;;;;11.80;7.20;;;;;;;2.20;100.00;100242.22;104773;1264;75484;-62
2023/02/03 09:42:17;;;;;;;13.10;9.40;;;;;;;2.23;100.00;100241.48;105156;1264;68639;-61
2023/02/03 09:45:22;;;;;;;11.40;8.00;;;;;;;2.36;100.00;100242.42;104797;1261;74284;-62
2023/02/03 09:47:54;;;;;;;8.70;6.00;;;;;;;2.55;100.00;100242.45;104767;1263;60489;-60
2023/02/03 09:50:24;;;;;;;9.70;6.70;;;;;;;2.75;100.00;100244.00;104969;1261;60597;-59
2023/02/03 09:52:53;;;;;;;9.90;6.60;;;;;;;2.90;100.00;100242.55;104881;1260;75698;-60
2023/02/03 09:55:24;;;;;;;11.90;6.90;;;;;;;3.01;100.00;100235.75;105053;1264;68502;-61
2023/02/03 09:58:01;;;;;;;11.20;7.10;;;;;;;3.09;100.00;100230.20;105154;1260;74398;-61
2023/02/03 10:00:50;;;;;;;9.50;6.40;;;;;;;3.18;100.00;100228.22;104911;1260;61796;-60
2023/02/03 10:03:21;;;;;;;9.90;6.70;;;;;;;3.29;100.00;100226.04;104963;1262;61234;-61
2023/02/03 10:06:02;;;;;;;11.00;7.10;;;;;;;3.38;100.00;100221.63;104977;1260;75600;-61
2023/02/03 10:08:40;;;;;;;25.70;18.60;;;;;;;3.45;100.00;100222.52;105199;1264;67697;-64
2023/02/03 10:11:33;;;;;;;14.60;8.90;;;;;;;3.52;100.00;100221.42;104959;1261;73998;-59
2023/02/03 10:14:40;;;;;;;12.60;8.40;;;;;;;3.61;100.00;100223.70;105057;1261;63079;-64
2023/02/03 10:17:53;;;;;;;13.10;8.30;;;;;;;3.65;100.00;100228.60;105023;1265;62170;-60
2023/02/03 10:20:32;;;;;;;12.70;9.10;;;;;;;3.56;100.00;100225.98;104521;1271;75530;-60
2023/02/03 10:23:31;;;;;;;13.80;9.10;;;;;;;3.38;100.00;100224.08;104852;1267;67489;-61
2023/02/03 10:26:05;;;;;;;11.90;8.00;;;;;;;3.16;100.00;100224.31;104991;1262;73189;-59
2023/02/03 10:29:05;;;;;;;13.50;9.30;;;;;;;3.01;100.00;100223.94;105090;1261;61825;-62
2023/02/03 10:31:35;;;;;;;11.10;7.90;;;;;;;2.94;100.00;100215.55;105326;1261;60885;-62
2023/02/03 10:34:09;;;;;;;12.70;8.90;;;;;;;3.04;100.00;100216.45;104890;1264;74298;-60
2023/02/03 10:37:15;;;;;;;10.80;7.70;;;;;;;3.17;100.00;100211.83;104852;1261;68992;-59
2023/02/03 10:39:47;;;;;;;12.10;8.40;;;;;;;3.36;100.00;100211.72;105070;1261;73047;-62
2023/02/03 10:42:16;;;;;;;12.60;7.80;;;;;;;3.57;100.00;100204.96;104895;1264;61257;-58
2023/02/03 10:44:55;;;;;;;12.20;8.20;;;;;;;3.89;100.00;100208.76;104824;1259;61942;-58
2023/02/03 10:47:27;;;;;;;14.10;8.30;;;;;;;4.18;100.00;100205.41;104706;1265;75333;-61
2023/02/03 10:49:56;;;;;;;12.40;8.10;;;;;;;4.31;100.00;100206.44;104945;1264;67047;-59
2023/02/03 10:52:32;;;;;;;10.50;7.10;;;;;;;4.37;100.00;100207.20;104792;1261;74171;-59
2023/02/03 10:55:28;;;;;;;13.10;8.70;;;;;;;4.41;100.00;100204.59;104911;1264;61215;-59
2023/02/03 10:57:57;;;;;;;11.70;7.70;;;;;;;4.51;100.00;100202.12;104977;1264;61001;-60
2023/02/03 11:00:28;;;;;;;11.40;8.00;;;;;;;4.58;100.00;100193.16;104833;1260;74551;-62
2023/02/03 11:03:05;;;;;;;;;;;;;;;4.57;100.00;100194.86;105212;1265;67694;-62
2023/02/03 11:05:34;;;;;;;11.90;8.00;;;;;;;4.54;100.00;100193.06;104765;1261;74256;-61
2023/02/03 11:08:03;;;;;;;14.00;8.00;;;;;;;4.47;100.00;100195.59;104870;1261;61569;-62
2023/02/03 11:10:34;;;;;;;12.50;8.20;;;;;;;4.45;100.00;100191.56;104885;1264;60365;-60
2023/02/03 11:13:20;;;;;;;12.30;8.50;;;;;;;4.46;100.00;100189.35;104991;1260;75498;-62
2023/02/03 11:16:05;;;;;;;11.10;7.70;;;;;;;4.49;100.00;100189.25;104662;1264;68634;-59
2023/02/03 11:18:50;;;;;;;11.90;8.20;;;;;;;4.52;100.00;100186.03;104865;1261;72751;-59
2023/02/03 11:21:30;;;;;;;12.20;8.60;;;;;;;4.52;100.00;100182.94;104960;1264;61768;-61
2023/02/03 11:24:03;;;;;;;12.90;8.50;;;;;;;4.53;100.00;100178.85;105164;1264;60854;-61
2023/02/03 11:26:38;;;;;;;11.50;8.50;;;;;;;4.66;100.00;100181.45;104921;1261;75550;-59